Time;durP1;ratioP1;P1;durP2;ratioP2;P2;SDS_P1;SDS_P2;PMS_P1;PMS_P2;Temp;Humidity;BMP_temperature;BMP_pressure;BME280_temperature;BME280_humidity;BME280_pressure;Samples;Min_cycle;Max_cycle;Signal;HPM_P1;HPM_P2
2024/03/25 00:00:13;;;;;;;3.53;1.40;;;;;;;7.18;100.00;99250.66;5127377;28;20046;-76
2024/03/25 00:02:44;;;;;;;6.57;1.40;;;;;;;7.16;100.00;99257.69;5125346;28;20034;-74
2024/03/25 00:05:15;;;;;;;5.72;1.40;;;;;;;7.20;100.00;99257.47;5124455;28;20108;-75
2024/03/25 00:07:46;;;;;;;7.07;1.33;;;;;;;7.12;100.00;99261.31;5119567;28;20046;-74
2024/03/25 00:10:16;;;;;;;3.95;0.93;;;;;;;7.12;100.00;99269.13;5119396;28;20554;-75
2024/03/25 00:12:52;;;;;;;5.03;1.20;;;;;;;7.05;100.00;99275.47;5118605;28;20110;-75
2024/03/25 00:15:23;;;;;;;;;;;;;;;7.18;100.00;99269.69;5121498;28;20453;-75
2024/03/25 00:17:55;;;;;;;5.03;1.00;;;;;;;7.11;100.00;99273.44;5119567;28;19926;-75
2024/03/25 00:20:25;;;;;;;9.98;1.20;;;;;;;7.04;100.00;99265.97;5122069;28;20015;-75
2024/03/25 00:22:55;;;;;;;6.95;1.40;;;;;;;6.97;100.00;99275.78;5120945;28;20027;-74
2024/03/25 00:25:26;;;;;;;5.70;1.60;;;;;;;6.94;100.00;99280.28;5122962;28;20081;-75
2024/03/25 00:27:57;;;;;;;6.63;1.40;;;;;;;6.89;100.00;99277.00;5122045;28;20058;-73
2024/03/25 00:30:27;;;;;;;6.55;1.20;;;;;;;6.87;100.00;99278.81;5119702;28;20038;-75
2024/03/25 00:32:58;;;;;;;8.50;1.38;;;;;;;6.80;99.78;99287.78;5118649;28;20026;-75
2024/03/25 00:35:28;;;;;;;6.50;1.08;;;;;;;6.78;100.00;99299.97;5121057;28;20375;-73
2024/03/25 00:37:59;;;;;;;3.88;1.08;;;;;;;6.78;100.00;99287.00;5118422;28;20114;-73
2024/03/25 00:40:29;;;;;;;3.42;1.17;;;;;;;6.81;99.59;99300.72;5120356;28;20158;-75
2024/03/25 00:43:00;;;;;;;4.32;1.25;;;;;;;6.85;100.00;99301.41;5116740;28;20081;-72
2024/03/25 00:45:30;;;;;;;5.85;1.50;;;;;;;6.83;100.00;99309.28;5121136;28;20071;-75
2024/03/25 00:48:01;;;;;;;7.30;1.65;;;;;;;6.84;100.00;99291.94;5130577;28;20081;-73
2024/03/25 00:50:31;;;;;;;5.35;1.45;;;;;;;7.01;100.00;99300.72;5129906;28;20070;-75
2024/03/25 00:53:01;;;;;;;6.07;1.60;;;;;;;6.87;100.00;99309.97;5129669;28;20031;-75
2024/03/25 00:55:31;;;;;;;6.32;1.52;;;;;;;6.91;100.00;99306.38;5129561;28;20027;-75
2024/03/25 00:58:02;;;;;;;6.35;1.40;;;;;;;6.80;100.00;99293.81;5130976;28;20185;-74
2024/03/25 01:00:33;;;;;;;7.03;2.17;;;;;;;6.87;100.00;99294.41;5127866;28;20042;-74
2024/03/25 01:03:03;;;;;;;5.50;1.45;;;;;;;6.82;100.00;99302.41;5129576;28;20038;-74
2024/03/25 01:05:34;;;;;;;5.13;1.55;;;;;;;6.84;100.00;99302.31;5129042;28;20027;-74
2024/03/25 01:08:04;;;;;;;6.07;1.80;;;;;;;6.81;100.00;99311.09;5132361;28;20525;-75
2024/03/25 01:10:35;;;;;;;8.85;1.60;;;;;;;6.78;100.00;99313.78;5122446;28;20055;-74
2024/03/25 01:13:05;;;;;;;7.38;1.70;;;;;;;6.65;100.00;99322.16;5125206;28;20114;-75
2024/03/25 01:15:35;;;;;;;8.52;1.50;;;;;;;6.72;100.00;99313.19;5128562;28;20027;-75
2024/03/25 01:18:06;;;;;;;6.57;1.98;;;;;;;6.72;100.00;99316.66;5131366;28;20076;-76
2024/03/25 01:20:36;;;;;;;9.15;1.63;;;;;;;6.73;100.00;99322.69;5128147;28;20023;-75
2024/03/25 01:23:06;;;;;;;5.72;1.50;;;;;;;6.71;100.00;99320.16;5128913;28;20026;-76
2024/03/25 01:25:37;;;;;;;6.00;1.60;;;;;;;6.66;100.00;99321.22;5129108;28;20390;-75
2024/03/25 01:28:07;;;;;;;6.03;1.55;;;;;;;6.80;100.00;99324.13;5126473;28;20123;-75
2024/03/25 01:30:39;;;;;;;4.57;1.55;;;;;;;6.79;100.00;99325.03;5144221;28;20589;-75
2024/03/25 01:33:09;;;;;;;6.30;1.63;;;;;;;6.79;100.00;99325.03;5129573;28;20517;-75
2024/03/25 01:35:40;;;;;;;6.28;1.48;;;;;;;6.75;100.00;99331.28;5111346;28;20069;-75
2024/03/25 01:38:10;;;;;;;7.85;1.75;;;;;;;6.75;100.00;99333.88;5126310;28;20022;-74
2024/03/25 01:40:40;;;;;;;6.30;1.40;;;;;;;6.75;100.00;99326.91;5129254;28;20105;-74
2024/03/25 01:43:11;;;;;;;7.20;1.58;;;;;;;6.78;100.00;99341.53;5125492;28;20027;-73
2024/03/25 01:45:42;;;;;;;6.75;1.60;;;;;;;6.74;100.00;99340.78;5129328;28;20027;-73
2024/03/25 01:48:13;;;;;;;9.07;1.52;;;;;;;6.74;100.00;99338.19;5126141;28;20026;-74
2024/03/25 01:50:45;;;;;;;8.52;1.77;;;;;;;6.78;100.00;99338.94;5128776;28;20114;-74
2024/03/25 01:53:15;;;;;;;5.60;1.45;;;;;;;6.85;100.00;99343.81;5123945;28;20122;-73
2024/03/25 01:55:48;;;;;;;4.63;1.40;;;;;;;6.89;100.00;99339.31;5128015;28;20321;-75
2024/03/25 01:58:18;;;;;;;5.85;1.40;;;;;;;6.84;100.00;99339.53;5123235;28;20402;-76
2024/03/25 02:00:50;;;;;;;5.97;1.50;;;;;;;6.96;100.00;99340.78;5129759;28;20015;-75
2024/03/25 02:03:22;;;;;;;6.43;1.58;;;;;;;6.82;100.00;99349.13;5126970;28;20638;-75
2024/03/25 02:05:59;;;;;;;7.55;1.77;;;;;;;6.76;100.00;99353.72;5126199;28;20033;-75
2024/03/25 02:08:31;;;;;;;3.85;1.50;;;;;;;6.71;100.00;99351.31;5127432;28;20109;-75
2024/03/25 02:11:01;;;;;;;6.18;1.55;;;;;;;6.77;100.00;99358.84;5128950;28;20030;-75
2024/03/25 02:13:32;;;;;;;5.85;1.70;;;;;;;6.80;100.00;99363.06;5129810;28;20426;-75
2024/03/25 02:16:03;;;;;;;6.80;1.63;;;;;;;6.82;100.00;99369.03;5119488;28;20231;-74
2024/03/25 02:18:34;;;;;;;5.95;1.73;;;;;;;6.75;100.00;99358.06;5127641;28;20042;-76
2024/03/25 02:21:05;;;;;;;3.67;1.40;;;;;;;6.79;100.00;99363.97;5125918;28;20630;-75
2024/03/25 02:23:38;;;;;;;6.78;1.52;;;;;;;6.80;100.00;99370.88;5123094;28;20471;-74
2024/03/25 02:26:09;;;;;;;6.93;2.33;;;;;;;6.80;100.00;99363.06;5123456;28;20109;-74
2024/03/25 02:28:39;;;;;;;4.63;1.80;;;;;;;6.82;100.00;99366.44;5127787;28;20159;-75
2024/03/25 02:31:09;;;;;;;5.70;1.80;;;;;;;6.85;100.00;99374.13;5130219;28;20035;-75
2024/03/25 02:33:42;;;;;;;5.15;1.80;;;;;;;6.79;100.00;99366.56;5132515;28;20030;-75
2024/03/25 02:36:12;;;;;;;8.25;2.00;;;;;;;6.80;100.00;99365.66;5134402;28;20058;-74
2024/03/25 02:38:43;;;;;;;5.32;1.70;;;;;;;6.83;100.00;99370.72;5127896;28;20105;-75
2024/03/25 02:41:13;;;;;;;7.65;2.10;;;;;;;6.79;100.00;99377.78;5131365;28;20035;-76
2024/03/25 02:43:44;;;;;;;5.90;1.77;;;;;;;6.79;100.00;99379.56;5126975;28;20097;-76
2024/03/25 02:46:14;;;;;;;6.22;1.83;;;;;;;6.83;100.00;99378.53;5132345;28;20512;-76
2024/03/25 02:48:46;;;;;;;5.18;1.75;;;;;;;6.70;100.00;99391.16;5128242;28;20035;-75
2024/03/25 02:51:16;;;;;;;7.95;1.83;;;;;;;6.76;100.00;99400.44;5131555;28;20058;-72
2024/03/25 02:53:47;;;;;;;8.35;2.00;;;;;;;6.82;100.00;99400.19;5130203;28;20475;-75
2024/03/25 02:56:17;;;;;;;5.93;1.83;;;;;;;6.70;100.00;99400.66;5130342;28;20023;-72
2024/03/25 02:58:47;;;;;;;7.55;1.80;;;;;;;6.72;100.00;99404.03;5128495;28;20042;-74
2024/03/25 03:01:17;;;;;;;7.78;1.95;;;;;;;6.82;100.00;99406.25;5130639;28;20079;-73
2024/03/25 03:03:48;;;;;;;9.13;1.90;;;;;;;6.67;100.00;99418.97;5129174;28;20029;-76
2024/03/25 03:06:18;;;;;;;8.30;1.90;;;;;;;6.79;100.00;99421.94;5130978;28;20023;-73
2024/03/25 03:08:49;;;;;;;6.47;1.63;;;;;;;6.72;100.00;99414.44;5131077;28;20154;-75
2024/03/25 03:11:19;;;;;;;7.68;1.80;;;;;;;6.79;100.00;99421.09;5130966;28;20050;-73
2024/03/25 03:13:50;;;;;;;6.00;1.70;;;;;;;6.83;100.00;99420.94;5129969;28;20450;-76
2024/03/25 03:16:20;;;;;;;9.23;2.50;;;;;;;6.79;100.00;99418.50;5130618;28;20034;-75
2024/03/25 03:18:50;;;;;;;9.68;2.08;;;;;;;6.91;100.00;99418.88;5133017;28;20041;-76
2024/03/25 03:21:20;;;;;;;8.60;1.95;;;;;;;6.77;100.00;99425.50;5131360;28;20174;-74
2024/03/25 03:23:51;;;;;;;3.78;1.75;;;;;;;6.73;100.00;99423.94;5124805;28;20031;-74
2024/03/25 03:26:26;;;;;;;8.48;1.70;;;;;;;6.58;100.00;99422.75;5125647;28;20093;-75
2024/03/25 03:28:57;;;;;;;6.47;2.10;;;;;;;6.73;100.00;99432.56;5124506;28;20022;-75
2024/03/25 03:31:27;;;;;;;7.68;1.77;;;;;;;6.78;100.00;99429.78;5128528;28;20565;-75
2024/03/25 03:33:58;;;;;;;7.32;1.90;;;;;;;6.79;100.00;99432.31;5132314;28;20062;-73
2024/03/25 03:36:28;;;;;;;9.52;1.70;;;;;;;6.84;100.00;99437.34;5129438;28;20779;-75
2024/03/25 03:38:58;;;;;;;7.45;1.90;;;;;;;6.72;100.00;99436.06;5127903;28;20031;-76
2024/03/25 03:41:29;;;;;;;18.17;2.10;;;;;;;6.84;100.00;99445.13;5122661;28;20035;-76
2024/03/25 03:43:59;;;;;;;6.15;1.85;;;;;;;6.87;100.00;99448.47;5127260;28;20069;-75
2024/03/25 03:46:29;;;;;;;9.35;2.58;;;;;;;6.77;100.00;99439.31;5128688;28;20034;-76
2024/03/25 03:48:59;;;;;;;8.48;2.00;;;;;;;6.93;100.00;99449.97;5130423;28;20598;-75
2024/03/25 03:51:30;;;;;;;10.88;2.33;;;;;;;6.92;100.00;99462.09;5130078;28;20063;-76
2024/03/25 03:54:00;;;;;;;7.15;2.13;;;;;;;7.00;100.00;99467.00;5126145;28;20757;-75
2024/03/25 03:56:30;;;;;;;6.65;2.00;;;;;;;6.98;100.00;99472.28;5129892;28;20023;-76
2024/03/25 03:59:01;;;;;;;5.72;1.80;;;;;;;6.93;100.00;99473.34;5130849;28;20035;-76
2024/03/25 04:01:31;;;;;;;8.88;2.10;;;;;;;6.98;100.00;99479.19;5128473;28;20054;-75
2024/03/25 04:04:01;;;;;;;7.40;2.03;;;;;;;7.03;100.00;99474.66;5129006;28;20077;-75
2024/03/25 04:06:32;;;;;;;7.90;1.95;;;;;;;6.93;100.00;99475.94;5123362;28;20084;-76
2024/03/25 04:09:02;;;;;;;9.95;2.10;;;;;;;6.96;100.00;99492.22;5128423;28;20031;-75
2024/03/25 04:11:36;;;;;;;9.43;1.95;;;;;;;6.79;100.00;99484.25;5125222;28;20054;-75
2024/03/25 04:14:06;;;;;;;10.38;2.03;;;;;;;6.79;100.00;99484.25;5126960;28;20030;-74
2024/03/25 04:16:36;;;;;;;7.47;2.20;;;;;;;6.90;100.00;99491.66;5129874;28;20402;-74
2024/03/25 04:19:07;;;;;;;8.20;1.80;;;;;;;6.86;100.00;99485.72;5130276;28;20084;-75
2024/03/25 04:21:37;;;;;;;9.30;2.08;;;;;;;6.79;100.00;99491.19;5128938;28;20029;-75
2024/03/25 04:24:08;;;;;;;6.50;1.90;;;;;;;6.79;100.00;99493.78;5126020;28;20446;-76
2024/03/25 04:26:38;;;;;;;7.10;1.70;;;;;;;6.76;100.00;99504.28;5132325;28;20031;-75
2024/03/25 04:29:09;;;;;;;7.22;2.00;;;;;;;6.81;100.00;99497.16;5129471;28;20054;-74
2024/03/25 04:31:39;;;;;;;5.68;1.90;;;;;;;6.78;100.00;99507.69;5130007;28;20162;-75
2024/03/25 04:34:09;;;;;;;7.90;1.80;;;;;;;6.75;100.00;99506.03;5129321;28;20030;-75
2024/03/25 04:36:40;;;;;;;8.00;2.08;;;;;;;6.68;100.00;99509.78;5130532;28;20030;-75
2024/03/25 04:39:11;;;;;;;7.75;1.83;;;;;;;6.59;100.00;99507.50;5125450;28;20030;-75
2024/03/25 04:41:41;;;;;;;6.97;1.85;;;;;;;6.76;100.00;99518.09;5128601;28;20020;-75
2024/03/25 04:44:12;;;;;;;7.03;1.90;;;;;;;6.71;100.00;99511.38;5122159;28;20027;-75
2024/03/25 04:46:42;;;;;;;6.47;2.33;;;;;;;6.73;100.00;99520.00;5130452;28;20486;-75
2024/03/25 04:49:12;;;;;;;6.65;1.98;;;;;;;6.65;100.00;99517.69;5126982;28;20038;-71
2024/03/25 04:51:43;;;;;;;6.72;1.90;;;;;;;6.73;100.00;99525.19;5128735;28;20163;-69
2024/03/25 04:54:13;;;;;;;6.50;2.05;;;;;;;6.76;100.00;99525.91;5118386;28;20285;-72
2024/03/25 04:56:44;;;;;;;6.18;1.85;;;;;;;6.75;100.00;99528.56;5124162;28;20976;-73
2024/03/25 04:59:14;;;;;;;11.50;2.05;;;;;;;6.68;100.00;99532.28;5124372;28;20163;-72
2024/03/25 05:01:44;;;;;;;5.40;1.88;;;;;;;6.70;100.00;99535.66;5127407;28;20049;-73
2024/03/25 05:04:15;;;;;;;9.77;2.40;;;;;;;6.64;100.00;99535.88;5126589;28;20035;-71
2024/03/25 05:06:45;;;;;;;11.82;2.33;;;;;;;6.57;100.00;99537.03;5127344;28;20053;-72
2024/03/25 05:09:16;;;;;;;4.53;1.90;;;;;;;6.57;100.00;99539.63;5127162;28;20045;-70
2024/03/25 05:11:46;;;;;;;11.95;2.38;;;;;;;6.46;100.00;99546.94;5129849;28;20033;-72
2024/03/25 05:14:16;;;;;;;6.57;1.80;;;;;;;6.52;100.00;99541.50;5127421;28;20035;-73
2024/03/25 05:16:47;;;;;;;8.32;1.92;;;;;;;6.39;100.00;99548.06;5128069;28;20023;-74
2024/03/25 05:19:17;;;;;;;3.95;1.60;;;;;;;6.38;100.00;99554.13;5121291;28;20034;-72
2024/03/25 05:21:47;;;;;;;6.53;1.90;;;;;;;6.49;100.00;99557.19;5127764;28;20470;-72
2024/03/25 05:24:18;;;;;;;7.90;1.88;;;;;;;6.56;100.00;99561.28;5127468;28;20030;-72
2024/03/25 05:26:48;;;;;;;6.13;1.63;;;;;;;6.52;100.00;99562.28;5127542;28;20482;-72
2024/03/25 05:29:18;;;;;;;8.45;1.60;;;;;;;6.54;100.00;99571.72;5128495;28;20054;-72
2024/03/25 05:31:59;;;;;;;8.25;2.00;;;;;;;6.57;100.00;99566.41;5128154;28;20085;-72
2024/03/25 05:34:31;;;;;;;7.50;1.92;;;;;;;6.65;100.00;99568.72;5126516;28;20019;-72
2024/03/25 05:37:01;;;;;;;8.93;2.58;;;;;;;6.65;100.00;99566.13;5129302;28;20034;-73
2024/03/25 05:39:32;;;;;;;7.38;2.45;;;;;;;6.75;100.00;99576.13;5126721;28;20494;-72
2024/03/25 05:42:02;;;;;;;8.90;2.20;;;;;;;6.70;100.00;99566.81;5126761;28;20086;-72
2024/03/25 05:44:33;;;;;;;9.98;2.50;;;;;;;6.76;100.00;99562.25;5127988;28;20505;-72
2024/03/25 05:47:03;;;;;;;9.68;2.67;;;;;;;6.66;100.00;99566.09;5126365;28;20062;-74
2024/03/25 05:49:33;;;;;;;7.65;2.00;;;;;;;6.74;100.00;99571.84;5128582;28;20027;-73
2024/03/25 05:52:04;;;;;;;14.43;2.47;;;;;;;6.80;100.00;99573.38;5127712;28;20023;-73
2024/03/25 05:54:34;;;;;;;9.10;2.47;;;;;;;6.84;100.00;99580.13;5129364;28;20113;-72
2024/03/25 05:57:04;;;;;;;9.23;2.08;;;;;;;6.81;100.00;99569.88;5126913;28;20018;-71
2024/03/25 05:59:34;;;;;;;7.97;2.00;;;;;;;6.73;100.00;99580.53;5125987;28;20035;-72
2024/03/25 06:02:05;;;;;;;9.60;2.20;;;;;;;6.80;100.00;99588.94;5127601;28;20553;-74
2024/03/25 06:04:35;;;;;;;9.95;2.42;;;;;;;6.94;100.00;99602.28;5125716;28;20027;-73
2024/03/25 06:07:05;;;;;;;10.45;2.10;;;;;;;7.06;100.00;99592.28;5130549;28;20034;-72
2024/03/25 06:09:36;;;;;;;5.57;2.22;;;;;;;7.11;100.00;99597.31;5130334;28;20394;-72
2024/03/25 06:12:06;;;;;;;8.73;2.00;;;;;;;7.02;100.00;99595.03;5131981;28;20033;-74
2024/03/25 06:14:38;;;;;;;22.83;7.10;;;;;;;6.96;100.00;99610.88;5122478;28;21427;-73
2024/03/25 06:17:08;;;;;;;8.15;1.90;;;;;;;7.08;100.00;99610.44;5128551;28;20026;-74
2024/03/25 06:19:38;;;;;;;10.63;2.50;;;;;;;7.20;100.00;99610.81;5130464;28;20029;-73
2024/03/25 06:22:08;;;;;;;5.53;2.20;;;;;;;7.28;100.00;99614.81;5131390;28;20466;-72
2024/03/25 06:24:39;;;;;;;8.02;1.95;;;;;;;7.26;100.00;99620.13;5131050;28;20098;-72
2024/03/25 06:27:09;;;;;;;9.40;1.92;;;;;;;7.21;99.99;99622.03;5130658;28;20038;-74
2024/03/25 06:29:39;;;;;;;12.73;2.30;;;;;;;7.00;100.00;99623.69;5129445;28;20022;-73
2024/03/25 06:35:01;;;;;;;9.32;2.00;;;;;;;7.25;100.00;99639.22;5130630;28;20042;-72
2024/03/25 06:37:31;;;;;;;9.32;2.28;;;;;;;7.34;100.00;99650.94;5125790;28;20043;-71
2024/03/25 06:40:02;;;;;;;10.25;2.30;;;;;;;7.35;100.00;99642.25;5128460;28;20030;-72
2024/03/25 06:42:32;;;;;;;9.93;1.80;;;;;;;7.26;100.00;99640.91;5127909;28;20121;-72
2024/03/25 06:45:02;;;;;;;8.73;2.03;;;;;;;7.33;100.00;99640.63;5130693;28;20069;-72
2024/03/25 06:47:33;;;;;;;8.15;2.10;;;;;;;7.10;100.00;99650.19;5123094;28;20465;-71
2024/03/25 06:50:03;;;;;;;8.15;2.08;;;;;;;7.24;100.00;99647.94;5131066;28;20026;-72
2024/03/25 06:52:34;;;;;;;12.15;2.13;;;;;;;7.26;100.00;99656.50;5127551;28;20034;-72
2024/03/25 06:55:04;;;;;;;12.45;1.90;;;;;;;7.41;100.00;99654.19;5129635;28;20045;-72
2024/03/25 06:57:35;;;;;;;13.00;2.10;;;;;;;7.40;100.00;99663.75;5128188;28;20488;-72
2024/03/25 07:00:09;;;;;;;13.40;2.45;;;;;;;7.45;100.00;99661.81;5129348;28;20019;-73
2024/03/25 07:02:40;;;;;;;9.52;2.17;;;;;;;7.40;100.00;99665.47;5128422;28;20310;-72
2024/03/25 07:05:11;;;;;;;9.10;2.88;;;;;;;7.38;100.00;99662.09;5130089;28;20118;-73
2024/03/25 07:07:41;;;;;;;10.35;2.72;;;;;;;7.40;100.00;99668.94;5128198;28;20038;-72
2024/03/25 07:10:12;;;;;;;11.45;2.72;;;;;;;7.56;100.00;99671.78;5120132;28;20031;-74
2024/03/25 07:12:42;;;;;;;11.35;2.25;;;;;;;7.55;100.00;99670.94;5119740;28;20033;-71
2024/03/25 07:15:12;;;;;;;10.75;2.00;;;;;;;7.53;98.83;99675.34;5119699;28;20031;-74
2024/03/25 07:17:43;;;;;;;7.00;1.92;;;;;;;7.61;98.60;99673.31;5120344;28;20035;-72
2024/03/25 07:20:13;;;;;;;15.40;2.72;;;;;;;7.60;99.01;99676.84;5123006;28;20055;-73
2024/03/25 07:22:43;;;;;;;11.85;2.53;;;;;;;7.46;99.80;99680.84;5122213;28;20038;-73
2024/03/25 07:25:14;;;;;;;10.48;2.30;;;;;;;7.45;100.00;99674.81;5125504;28;20038;-73
2024/03/25 07:27:44;;;;;;;10.65;2.10;;;;;;;7.42;100.00;99681.84;5119956;28;20517;-73
2024/03/25 07:30:15;;;;;;;15.82;3.28;;;;;;;7.41;100.00;99691.44;5124160;28;20031;-73
2024/03/25 07:32:45;;;;;;;10.55;2.72;;;;;;;7.49;100.00;99686.78;5118680;28;20398;-74
2024/03/25 07:35:16;;;;;;;12.30;2.92;;;;;;;7.56;100.00;99687.41;5121646;28;20073;-73
2024/03/25 07:37:51;;;;;;;11.02;2.85;;;;;;;7.63;100.00;99691.44;5118348;28;20023;-73
2024/03/25 07:40:22;;;;;;;10.88;2.75;;;;;;;7.72;100.00;99689.34;5116439;28;20470;-71
2024/03/25 07:42:52;;;;;;;11.18;2.97;;;;;;;7.83;100.00;99688.94;5115218;28;20524;-74
2024/03/25 07:45:23;;;;;;;19.27;3.08;;;;;;;7.85;100.00;99685.38;5120022;28;20070;-71
2024/03/25 07:47:55;;;;;;;13.60;2.60;;;;;;;8.02;100.00;99697.72;5120025;28;20479;-69
2024/03/25 07:50:25;;;;;;;11.43;2.40;;;;;;;8.05;100.00;99702.81;5118883;28;20067;-71
2024/03/25 07:52:55;;;;;;;9.65;2.28;;;;;;;7.94;100.00;99694.56;5119980;28;20046;-70
2024/03/25 07:55:25;;;;;;;12.80;2.47;;;;;;;8.12;100.00;99704.25;5128201;28;20023;-71
2024/03/25 07:57:56;;;;;;;15.27;2.65;;;;;;;8.23;100.00;99708.16;5124657;28;20391;-74
2024/03/25 08:00:26;;;;;;;11.15;2.25;;;;;;;8.32;99.88;99709.53;5123536;28;20027;-70
2024/03/25 08:02:56;;;;;;;12.25;2.72;;;;;;;8.15;99.56;99710.19;5126411;28;20107;-73
2024/03/25 08:05:30;;;;;;;10.70;2.42;;;;;;;8.37;99.32;99715.44;5121693;28;20459;-71
2024/03/25 08:08:00;;;;;;;13.13;2.30;;;;;;;8.47;99.32;99722.81;5121991;28;20164;-72
2024/03/25 08:10:30;;;;;;;14.75;2.95;;;;;;;8.68;98.81;99727.13;5121211;28;20033;-74
2024/03/25 08:13:00;;;;;;;12.50;2.72;;;;;;;8.89;96.28;99726.22;5129144;28;20252;-74
2024/03/25 08:15:31;;;;;;;11.90;2.45;;;;;;;9.00;96.50;99724.00;5124249;28;20035;-72
2024/03/25 08:18:01;;;;;;;11.77;2.58;;;;;;;8.92;95.00;99709.63;5125438;28;20034;-73
2024/03/25 08:20:31;;;;;;;14.18;2.63;;;;;;;9.14;93.05;99727.72;5122328;28;20139;-71
2024/03/25 08:23:02;;;;;;;12.75;2.60;;;;;;;9.25;91.47;99716.81;5127538;28;20129;-73
2024/03/25 08:25:32;;;;;;;11.95;3.22;;;;;;;9.56;90.26;99714.53;5124474;28;20028;-74
2024/03/25 08:28:02;;;;;;;11.30;2.35;;;;;;;10.11;89.47;99711.09;5124554;28;20058;-74
2024/03/25 08:30:33;;;;;;;12.70;2.42;;;;;;;10.40;84.89;99708.81;5126100;28;20399;-73
2024/03/25 08:33:03;;;;;;;15.27;2.90;;;;;;;10.06;84.82;99711.34;5125120;28;20119;-72
2024/03/25 08:35:34;;;;;;;12.02;2.40;;;;;;;9.94;84.91;99718.84;5126691;28;20108;-71
2024/03/25 08:38:04;;;;;;;11.73;2.15;;;;;;;9.81;86.90;99729.00;5122634;28;20152;-72
2024/03/25 08:40:35;;;;;;;10.35;2.45;;;;;;;9.62;88.08;99728.16;5124410;28;20097;-72
2024/03/25 08:43:06;;;;;;;12.70;2.72;;;;;;;9.30;87.81;99740.94;5121049;28;20041;-73
2024/03/25 08:45:36;;;;;;;21.33;4.20;;;;;;;9.22;89.66;99738.66;5120379;28;20027;-72
2024/03/25 08:48:07;;;;;;;12.90;4.07;;;;;;;9.14;88.82;99737.31;5139098;28;20037;-72
2024/03/25 08:50:37;;;;;;;11.93;4.00;;;;;;;9.67;86.99;99727.94;5120086;28;20296;-72
2024/03/25 08:53:08;;;;;;;14.77;2.80;;;;;;;9.47;86.99;99731.44;5119467;28;20022;-73
2024/03/25 08:55:38;;;;;;;10.73;3.40;;;;;;;9.65;86.70;99735.00;5123019;28;20771;-72
2024/03/25 08:58:09;;;;;;;14.65;2.95;;;;;;;9.54;87.26;99727.66;5120367;28;20034;-72
2024/03/25 09:00:39;;;;;;;11.57;2.65;;;;;;;9.70;86.81;99736.50;5125049;28;20035;-72
2024/03/25 09:03:10;;;;;;;12.77;2.92;;;;;;;9.73;87.13;99735.50;5119265;28;20026;-73
2024/03/25 09:05:41;;;;;;;15.85;3.10;;;;;;;10.12;86.78;99734.53;5120434;28;20027;-73
2024/03/25 09:08:11;;;;;;;13.98;2.95;;;;;;;10.19;83.93;99727.25;5124722;28;20108;-74
2024/03/25 09:13:32;;;;;;;12.68;2.55;;;;;;;10.48;81.46;99727.53;5117138;28;20089;-73
2024/03/25 09:16:03;;;;;;;15.38;2.25;;;;;;;10.20;80.99;99736.78;5124497;28;20058;-71
2024/03/25 09:18:35;;;;;;;11.40;2.25;;;;;;;10.44;80.58;99727.75;5120269;28;20035;-73
2024/03/25 09:21:05;;;;;;;13.68;3.45;;;;;;;10.32;80.54;99733.59;5123851;28;20025;-73
2024/03/25 09:23:36;;;;;;;16.80;4.60;;;;;;;10.07;80.38;99740.88;5125709;28;20039;-74
2024/03/25 09:26:06;;;;;;;15.38;4.78;;;;;;;10.28;81.16;99737.25;5122026;28;20372;-72
2024/03/25 09:28:36;;;;;;;12.25;4.47;;;;;;;10.23;81.64;99741.84;5114913;28;20122;-74
2024/03/25 09:31:06;;;;;;;17.23;3.10;;;;;;;10.02;81.24;99740.25;5118039;28;20026;-75
2024/03/25 09:33:37;;;;;;;9.40;2.15;;;;;;;9.99;82.92;99740.38;5115427;28;20653;-74
2024/03/25 09:36:07;;;;;;;17.08;3.65;;;;;;;9.94;83.67;99744.94;5120501;28;20038;-74
2024/03/25 09:38:37;;;;;;;9.80;2.20;;;;;;;10.12;82.18;99741.50;5117345;28;20063;-72
2024/03/25 09:41:11;;;;;;;13.02;2.80;;;;;;;9.77;82.64;99744.88;5119645;28;20030;-72
2024/03/25 09:43:50;;;;;;;12.68;2.55;;;;;;;9.75;81.57;99746.69;5117893;28;20035;-72
2024/03/25 09:46:22;;;;;;;10.48;2.33;;;;;;;9.88;83.07;99747.84;5119591;28;20023;-72
2024/03/25 09:48:53;;;;;;;7.68;1.50;;;;;;;9.98;82.32;99744.72;5113029;28;20107;-74
2024/03/25 09:51:23;;;;;;;10.55;2.03;;;;;;;10.12;80.62;99737.16;5115876;28;20156;-72
2024/03/25 09:53:54;;;;;;;10.35;2.20;;;;;;;9.94;80.62;99747.53;5110552;28;20078;-73
2024/03/25 09:56:24;;;;;;;13.50;2.55;;;;;;;10.12;79.77;99741.50;5118317;28;20538;-73
2024/03/25 09:58:55;;;;;;;9.35;1.83;;;;;;;10.26;80.10;99747.78;5116528;28;20030;-72
2024/03/25 10:01:25;;;;;;;8.57;1.77;;;;;;;10.31;79.08;99742.34;5116437;28;20023;-71
2024/03/25 10:03:56;;;;;;;7.18;1.40;;;;;;;10.35;78.24;99741.28;5111732;28;20031;-74
2024/03/25 10:06:26;;;;;;;10.38;2.22;;;;;;;10.21;77.47;99749.78;5115313;28;20038;-73
2024/03/25 10:08:57;;;;;;;11.02;1.80;;;;;;;10.06;74.26;99747.88;5117034;28;20038;-74
2024/03/25 10:11:28;;;;;;;8.80;1.65;;;;;;;10.16;72.81;99756.13;5118982;28;20055;-73
2024/03/25 10:13:58;;;;;;;5.85;1.50;;;;;;;10.14;73.10;99747.53;5117559;28;20069;-72
2024/03/25 10:16:28;;;;;;;8.88;1.20;;;;;;;10.41;72.73;99748.81;5121759;28;20442;-73
2024/03/25 10:18:58;;;;;;;7.75;1.55;;;;;;;10.59;69.99;99740.09;5118068;28;20039;-73
2024/03/25 10:21:29;;;;;;;6.32;1.60;;;;;;;10.90;70.15;99753.34;5118343;28;20136;-73
2024/03/25 10:23:59;;;;;;;9.82;1.42;;;;;;;10.92;69.90;99748.88;5118905;28;20046;-72
2024/03/25 10:26:32;;;;;;;8.52;1.55;;;;;;;10.58;70.43;99749.69;5119871;28;20038;-73
2024/03/25 10:29:04;;;;;;;7.07;1.60;;;;;;;10.33;72.03;99756.19;5116705;28;20330;-73
2024/03/25 10:31:34;;;;;;;6.75;1.55;;;;;;;9.96;70.45;99757.00;5116410;28;20459;-74
2024/03/25 10:34:04;;;;;;;9.65;2.35;;;;;;;10.20;71.66;99750.66;5122112;28;20066;-73
2024/03/25 10:36:35;;;;;;;7.38;1.80;;;;;;;10.28;72.08;99750.31;5116794;28;20035;-72
2024/03/25 10:39:07;;;;;;;13.75;4.43;;;;;;;10.26;70.73;99754.75;5122606;28;20066;-71
2024/03/25 10:41:38;;;;;;;13.70;3.40;;;;;;;10.21;71.43;99752.38;5117865;28;20027;-72
2024/03/25 10:44:09;;;;;;;9.32;2.20;;;;;;;10.22;70.64;99748.00;5116340;28;20058;-73
2024/03/25 10:46:40;;;;;;;18.90;8.07;;;;;;;10.40;69.37;99749.72;5116489;28;20395;-73
2024/03/25 10:49:27;;;;;;;12.35;2.42;;;;;;;10.42;69.81;99740.91;5138121;23;20050;-71
2024/03/25 10:52:00;;;;;;;17.48;6.40;;;;;;;10.55;68.59;99742.00;5115888;28;20571;-73
2024/03/25 10:54:31;;;;;;;13.95;4.20;;;;;;;9.99;70.65;99748.19;5119754;28;20031;-73
2024/03/25 10:57:03;;;;;;;7.20;1.90;;;;;;;10.24;72.59;99735.72;5121295;28;20121;-72
2024/03/25 10:59:39;;;;;;;12.07;2.70;;;;;;;10.46;72.72;99741.59;5120152;28;20019;-72
2024/03/25 11:02:10;;;;;;;10.45;3.20;;;;;;;10.56;73.39;99742.84;5124414;28;20026;-72
2024/03/25 11:04:41;;;;;;;19.42;7.50;;;;;;;10.62;72.08;99739.94;5119951;28;20046;-72
2024/03/25 11:07:13;;;;;;;9.57;2.17;;;;;;;10.22;71.50;99743.63;5122421;28;20398;-70
2024/03/25 11:09:43;;;;;;;29.13;11.82;;;;;;;10.48;72.36;99735.38;5120075;28;20066;-71
2024/03/25 11:12:14;;;;;;;21.42;7.07;;;;;;;10.31;72.46;99740.56;5121880;28;20042;-72
2024/03/25 11:14:44;;;;;;;17.58;6.75;;;;;;;10.21;71.43;99738.47;5105181;28;20293;-71
2024/03/25 11:17:15;;;;;;;8.50;1.67;;;;;;;10.32;72.37;99734.44;5123460;28;20038;-72
2024/03/25 11:19:46;;;;;;;9.73;1.98;;;;;;;10.29;71.10;99737.19;5123871;28;20066;-73
2024/03/25 11:22:25;;;;;;;6.18;2.00;;;;;;;10.45;73.35;99734.69;5122193;28;20067;-71
2024/03/25 11:24:55;;;;;;;8.55;1.45;;;;;;;10.51;72.08;99734.41;5123609;28;20031;-73
2024/03/25 11:27:26;;;;;;;12.05;2.22;;;;;;;10.54;71.10;99731.63;5136201;28;20086;-74
2024/03/25 11:29:57;;;;;;;10.18;2.40;;;;;;;10.86;71.22;99723.03;5122386;28;20027;-71
2024/03/25 11:32:28;;;;;;;10.88;2.10;;;;;;;10.94;71.02;99728.72;5120101;28;20054;-74
2024/03/25 11:34:58;;;;;;;9.55;1.77;;;;;;;10.82;69.73;99724.97;5121765;28;20026;-73
2024/03/25 11:37:29;;;;;;;7.90;1.83;;;;;;;11.21;72.16;99723.78;5135719;28;20054;-74
2024/03/25 11:40:04;;;;;;;10.30;2.13;;;;;;;11.32;69.43;99718.84;5123934;28;20035;-73
2024/03/25 11:42:34;;;;;;;10.88;2.00;;;;;;;11.10;66.21;99720.88;5117983;28;20031;-73
2024/03/25 11:45:17;;;;;;;7.40;1.55;;;;;;;10.98;68.46;99722.41;5119637;28;20541;-74
2024/03/25 11:47:49;;;;;;;8.65;1.73;;;;;;;10.85;68.90;99730.03;5120932;28;20051;-73
2024/03/25 11:50:20;;;;;;;9.68;2.25;;;;;;;10.92;69.75;99727.97;5119673;28;20023;-72
2024/03/25 11:52:50;;;;;;;13.45;4.10;;;;;;;10.86;70.12;99733.50;5119761;28;20042;-71